Time;durP1;ratioP1;P1;durP2;ratioP2;P2;SDS_P1;SDS_P2;PMS_P1;PMS_P2;Temp;Humidity;BMP_temperature;BMP_pressure;BME280_temperature;BME280_humidity;BME280_pressure;Samples;Min_cycle;Max_cycle;Signal;HPM_P1;HPM_P2
2024/03/10 00:00:56;;;;;;;7.15;3.67;;;;;;;7.78;49.60;98124.00;10432515;28;20055;-59
2024/03/10 00:05:58;;;;;;;9.60;3.92;;;;;;;7.81;49.46;98119.38;10437180;28;20098;-59
2024/03/10 00:11:00;;;;;;;7.70;3.60;;;;;;;7.72;49.54;98120.13;10436600;28;20049;-59
2024/03/10 00:16:02;;;;;;;7.35;3.60;;;;;;;7.74;49.59;98117.38;10434546;28;20797;-59
2024/03/10 00:21:05;;;;;;;7.07;3.83;;;;;;;7.79;49.52;98126.50;10435254;28;20440;-58
2024/03/10 00:26:07;;;;;;;7.90;3.80;;;;;;;7.90;49.45;98130.88;10436408;28;20052;-58
2024/03/10 00:31:09;;;;;;;7.22;4.00;;;;;;;7.91;49.42;98137.75;10417620;28;20500;-59
2024/03/10 00:36:11;;;;;;;9.07;4.32;;;;;;;7.90;49.34;98126.50;10436620;28;20157;-58
2024/03/10 00:41:13;;;;;;;8.15;4.07;;;;;;;7.88;49.39;98111.94;10435921;28;20141;-58
2024/03/10 00:46:15;;;;;;;8.27;4.20;;;;;;;7.77;49.58;98115.38;10418088;28;20505;-59
2024/03/10 00:51:17;;;;;;;9.00;4.20;;;;;;;7.72;49.68;98119.28;10434234;28;20072;-59
2024/03/10 00:56:19;;;;;;;7.72;3.83;;;;;;;7.76;49.57;98105.09;10468780;28;20515;-59
2024/03/10 01:01:22;;;;;;;7.00;3.65;;;;;;;7.79;49.57;98121.28;10433073;28;20048;-59
2024/03/10 01:06:24;;;;;;;7.85;3.58;;;;;;;7.67;49.73;98109.22;10401395;28;20580;-59
2024/03/10 01:11:29;;;;;;;7.07;3.67;;;;;;;7.66;49.87;98109.34;10434865;28;20053;-59
2024/03/10 01:16:32;;;;;;;9.23;3.88;;;;;;;7.62;50.07;98106.16;10433348;28;20057;-59
2024/03/10 01:21:34;;;;;;;8.60;4.07;;;;;;;7.71;50.06;98109.84;10435472;28;20052;-60
2024/03/10 01:26:36;;;;;;;7.68;3.72;;;;;;;7.53;50.16;98106.03;10434458;28;20053;-59
2024/03/10 01:31:38;;;;;;;8.38;4.10;;;;;;;7.52;50.30;98096.56;10416095;28;20041;-59
2024/03/10 01:36:40;;;;;;;6.15;3.40;;;;;;;7.51;50.49;98094.91;10432903;28;20049;-59
2024/03/10 01:41:42;;;;;;;7.70;3.63;;;;;;;7.39;50.63;98099.25;10433584;28;20049;-59
2024/03/10 01:46:44;;;;;;;7.30;3.80;;;;;;;7.41;50.77;98107.78;10415139;28;20091;-59
2024/03/10 01:51:48;;;;;;;11.57;4.30;;;;;;;7.25;50.91;98096.03;10431813;28;20041;-59
2024/03/10 01:56:50;;;;;;;8.32;4.25;;;;;;;7.20;51.18;98088.63;10433246;28;20049;-59
2024/03/10 02:01:55;;;;;;;6.70;3.38;;;;;;;7.13;51.13;98083.03;10431846;28;20782;-59
2024/03/10 02:06:57;;;;;;;8.02;3.83;;;;;;;7.04;51.11;98069.91;10431441;28;20040;-60
2024/03/10 02:11:59;;;;;;;7.47;3.63;;;;;;;6.95;51.14;98055.00;10448347;28;20052;-59
2024/03/10 02:17:02;;;;;;;7.68;3.80;;;;;;;6.91;51.50;98056.16;10432669;28;20061;-60
2024/03/10 02:22:07;;;;;;;8.00;3.83;;;;;;;6.86;51.70;98043.50;10432690;28;20064;-59
2024/03/10 02:27:16;;;;;;;8.40;3.85;;;;;;;6.85;51.78;98051.41;10432158;28;20452;-59
2024/03/10 02:48:20;;;;;;;5.70;3.40;;;;;;;6.57;52.09;98031.03;10431485;28;20578;-60
2024/03/10 02:53:22;;;;;;;9.20;4.20;;;;;;;6.64;52.18;98014.88;10446295;28;20498;-59
2024/03/10 02:58:24;;;;;;;7.28;3.75;;;;;;;6.62;52.20;98003.78;10411849;28;20203;-60
2024/03/10 03:03:27;;;;;;;7.20;3.65;;;;;;;6.62;52.33;98002.94;10435552;28;20055;-60
2024/03/10 03:08:29;;;;;;;7.38;3.90;;;;;;;6.63;52.32;97994.22;10437890;28;20099;-60
2024/03/10 03:13:31;;;;;;;8.43;4.10;;;;;;;6.50;52.46;97993.47;10440036;28;20409;-59
2024/03/10 03:18:33;;;;;;;9.05;4.18;;;;;;;6.39;52.69;97985.66;10438330;28;20044;-60
2024/03/10 03:23:35;;;;;;;8.07;3.78;;;;;;;6.39;52.59;97980.44;10439962;28;20118;-59
2024/03/10 03:28:37;;;;;;;9.45;3.83;;;;;;;6.51;52.74;97963.97;10437603;28;20521;-59
2024/03/10 03:33:39;;;;;;;7.85;3.35;;;;;;;6.52;52.70;97950.84;10438103;28;20045;-60
2024/03/10 03:38:44;;;;;;;9.40;4.43;;;;;;;6.45;53.02;97962.63;10436812;28;20075;-59
2024/03/10 03:43:46;;;;;;;6.15;3.67;;;;;;;6.34;53.20;97955.66;10470369;28;20045;-59
2024/03/10 03:48:48;;;;;;;8.25;4.05;;;;;;;6.31;53.34;97952.44;10438522;28;20343;-60
2024/03/10 03:53:50;;;;;;;8.68;4.20;;;;;;;6.16;53.30;97937.97;10437702;28;20340;-60
2024/03/10 03:58:52;;;;;;;5.90;3.42;;;;;;;6.09;53.55;97928.97;10436660;28;20107;-59
2024/03/10 04:03:54;;;;;;;9.00;3.45;;;;;;;6.17;53.61;97934.44;10436652;28;20048;-59
2024/03/10 04:08:57;;;;;;;7.18;3.63;;;;;;;6.25;53.41;97922.56;10435904;28;20053;-59
2024/03/10 04:13:59;;;;;;;10.45;4.25;;;;;;;6.22;53.41;97919.34;10433948;28;20037;-59
2024/03/10 04:19:04;;;;;;;8.95;4.05;;;;;;;6.10;53.70;97915.88;10434401;28;20056;-59
2024/03/10 04:24:09;;;;;;;8.50;3.92;;;;;;;6.17;53.67;97918.84;10433743;28;20045;-59
2024/03/10 04:29:12;;;;;;;8.70;4.25;;;;;;;6.25;53.57;97919.16;10416022;28;20044;-59
2024/03/10 04:34:14;;;;;;;6.90;3.53;;;;;;;6.22;53.64;97916.75;10434623;28;20060;-59
2024/03/10 04:39:16;;;;;;;7.50;3.33;;;;;;;6.24;53.47;97915.72;10436359;28;20051;-59
2024/03/10 04:44:19;;;;;;;11.60;4.50;;;;;;;6.16;53.62;97914.63;10436200;28;20460;-59
2024/03/10 04:49:22;;;;;;;6.75;3.47;;;;;;;6.14;53.72;97904.31;10434927;28;20106;-60
2024/03/10 04:54:24;;;;;;;7.15;3.47;;;;;;;6.26;53.64;97910.44;10434872;28;20051;-59
2024/03/10 04:59:26;;;;;;;9.35;4.47;;;;;;;6.31;53.67;97890.97;10434468;28;20045;-59
2024/03/10 05:04:28;;;;;;;6.82;3.75;;;;;;;6.30;53.71;97886.72;10435787;28;20472;-59
2024/03/10 05:09:31;;;;;;;7.00;4.10;;;;;;;6.26;53.77;97887.91;10432092;28;20145;-60
2024/03/10 05:14:33;;;;;;;7.10;3.50;;;;;;;6.22;53.75;97886.44;10434711;28;20456;-59
2024/03/10 05:19:35;;;;;;;7.70;4.00;;;;;;;6.15;54.07;97879.22;10433267;28;20052;-59
2024/03/10 05:24:43;;;;;;;8.55;4.72;;;;;;;6.09;54.37;97884.84;10434534;28;20501;-59
2024/03/10 05:29:45;;;;;;;8.65;3.88;;;;;;;6.15;53.81;97882.63;10433078;28;20045;-59
2024/03/10 05:34:47;;;;;;;9.25;4.50;;;;;;;6.02;54.19;97866.31;10433216;28;20118;-59
2024/03/10 05:39:49;;;;;;;8.23;3.60;;;;;;;6.09;54.14;97862.34;10414984;28;20049;-59
2024/03/10 05:44:51;;;;;;;8.80;3.95;;;;;;;6.09;54.17;97864.94;10466274;28;20049;-60
2024/03/10 05:49:55;;;;;;;7.85;4.05;;;;;;;6.19;54.05;97885.81;10433500;28;20525;-60
2024/03/10 05:54:57;;;;;;;7.43;4.32;;;;;;;6.13;54.17;97902.69;10433639;28;20036;-60
2024/03/10 05:59:59;;;;;;;7.20;3.72;;;;;;;6.06;54.46;97911.84;10431814;28;20292;-59
2024/03/10 06:05:01;;;;;;;8.95;4.07;;;;;;;5.99;54.34;97904.63;10432529;28;20056;-60
2024/03/10 06:10:06;;;;;;;9.02;4.38;;;;;;;6.00;54.43;97904.50;10431543;28;20505;-60
2024/03/10 06:15:10;;;;;;;7.25;3.90;;;;;;;6.12;54.20;97897.63;10431661;28;20135;-60
2024/03/10 06:25:34;;;;;;;8.73;4.03;;;;;;;6.14;54.25;97888.75;10429723;28;20045;-60
2024/03/10 06:30:36;;;;;;;8.05;3.80;;;;;;;6.18;54.27;97894.56;10431309;28;20571;-60
2024/03/10 06:35:38;;;;;;;7.72;4.05;;;;;;;6.25;54.21;97901.81;10430392;28;20126;-61
2024/03/10 06:40:40;;;;;;;8.68;4.15;;;;;;;6.26;54.26;97905.25;10432267;28;20505;-60
2024/03/10 06:45:44;;;;;;;6.97;3.85;;;;;;;6.33;54.17;97902.06;10432274;28;20045;-60
2024/03/10 06:50:46;;;;;;;7.95;4.18;;;;;;;6.34;54.31;97911.53;10431435;28;20049;-60
2024/03/10 06:55:49;;;;;;;8.48;3.67;;;;;;;6.42;53.99;97916.13;10430533;28;20099;-61
2024/03/10 07:00:52;;;;;;;8.05;4.10;;;;;;;6.50;53.97;97920.75;10430337;28;20045;-60
2024/03/10 07:06:00;;;;;;;10.35;4.90;;;;;;;6.68;53.75;97917.59;10430542;28;20041;-60
2024/03/10 07:11:03;;;;;;;8.45;3.80;;;;;;;7.06;53.37;97919.88;10431569;28;20061;-60
2024/03/10 07:16:06;;;;;;;7.45;3.95;;;;;;;7.42;52.71;97924.81;10431173;28;20044;-60
2024/03/10 07:21:08;;;;;;;8.52;5.07;;;;;;;7.74;52.27;97924.84;10429086;28;20049;-60
2024/03/10 07:26:11;;;;;;;9.63;4.50;;;;;;;7.86;51.73;97940.31;10429577;28;20049;-60
2024/03/10 07:31:13;;;;;;;9.27;4.03;;;;;;;7.68;51.74;97944.38;10426194;28;20060;-60
2024/03/10 07:36:15;;;;;;;8.35;4.35;;;;;;;7.61;51.83;97934.59;10425751;28;20108;-60
2024/03/10 07:41:18;;;;;;;10.57;4.45;;;;;;;7.87;51.84;97943.75;10391567;28;20084;-59
2024/03/10 07:46:22;;;;;;;7.03;3.83;;;;;;;7.92;51.33;97963.22;10426819;28;20059;-60
2024/03/10 07:51:27;;;;;;;7.20;3.80;;;;;;;7.96;51.32;97956.00;10431477;28;20600;-60
2024/03/10 07:56:29;;;;;;;8.80;3.90;;;;;;;8.16;50.98;97957.06;10465025;28;20052;-59
2024/03/10 08:01:33;;;;;;;8.70;4.63;;;;;;;8.10;51.09;97957.50;10430035;28;20397;-60
2024/03/10 08:06:38;;;;;;;8.35;4.47;;;;;;;8.02;51.01;97950.31;10431417;28;20049;-60
2024/03/10 08:11:45;;;;;;;8.48;3.97;;;;;;;7.82;51.11;97944.09;10431825;28;20136;-60
2024/03/10 08:16:48;;;;;;;7.93;4.40;;;;;;;8.01;51.36;97914.81;10432650;28;20134;-59
2024/03/10 08:21:50;;;;;;;7.57;3.70;;;;;;;8.18;50.83;97896.06;10430601;28;20044;-54
2024/03/10 08:26:53;;;;;;;8.50;4.43;;;;;;;8.29;50.85;97866.53;10431706;28;20140;-53
2024/03/10 08:31:56;;;;;;;7.45;4.05;;;;;;;8.65;50.74;97866.88;10433055;28;20045;-55
2024/03/10 08:36:58;;;;;;;8.07;4.15;;;;;;;8.51;49.97;97849.00;10433011;28;20452;-52
2024/03/10 08:42:00;;;;;;;10.13;4.80;;;;;;;9.36;49.87;97845.03;10431477;28;20037;-54
2024/03/10 08:47:03;;;;;;;9.50;4.45;;;;;;;10.10;48.97;97838.38;10431669;28;20476;-54
2024/03/10 08:52:08;;;;;;;10.00;4.45;;;;;;;10.37;47.33;97837.66;10430978;28;20064;-55
2024/03/10 08:57:10;;;;;;;8.50;4.22;;;;;;;10.56;47.71;97847.25;10431418;28;20130;-53
2024/03/10 09:02:12;;;;;;;12.02;5.25;;;;;;;10.52;47.57;97851.94;10429646;28;20138;-51
2024/03/10 09:07:14;;;;;;;11.27;5.43;;;;;;;10.49;46.69;97847.81;10431697;28;20057;-55
2024/03/10 09:12:17;;;;;;;9.13;4.38;;;;;;;10.23;47.15;97835.47;10431390;28;20049;-55
2024/03/10 09:17:20;;;;;;;10.00;4.93;;;;;;;10.12;47.53;97839.06;10412980;28;20420;-53
2024/03/10 09:22:22;;;;;;;9.10;4.63;;;;;;;10.14;47.72;97842.38;10430301;28;20128;-57
2024/03/10 09:27:24;;;;;;;9.93;4.82;;;;;;;10.18;47.65;97848.13;10430108;28;20159;-56
2024/03/10 09:32:27;;;;;;;9.88;4.75;;;;;;;10.45;47.49;97843.00;10429780;28;20053;-53
2024/03/10 09:37:30;;;;;;;12.48;5.25;;;;;;;10.37;46.48;97846.31;10430813;28;20044;-56
2024/03/10 09:42:32;;;;;;;10.07;5.18;;;;;;;10.56;47.28;97837.63;10429234;28;20045;-56
2024/03/10 09:47:34;;;;;;;11.25;5.10;;;;;;;10.65;46.58;97841.97;10427925;28;20052;-54
2024/03/10 09:52:38;;;;;;;10.93;4.32;;;;;;;10.71;46.67;97825.72;10429863;28;20296;-54
2024/03/10 09:57:40;;;;;;;10.27;5.13;;;;;;;10.86;46.51;97853.06;10425670;28;20131;-56
2024/03/10 10:02:43;;;;;;;9.98;5.38;;;;;;;10.94;45.70;97839.25;10428504;28;20340;-55
2024/03/10 10:07:46;;;;;;;8.23;4.78;;;;;;;11.07;45.58;97839.78;10426635;28;20091;-54
2024/03/10 10:12:49;;;;;;;10.32;4.68;;;;;;;11.25;45.34;97846.69;10426042;28;20441;-54
2024/03/10 10:17:59;;;;;;;10.23;5.18;;;;;;;11.49;44.63;97825.22;10427203;28;20051;-55
2024/03/10 10:23:06;;;;;;;8.55;4.93;;;;;;;11.99;44.63;97828.09;10428061;28;20126;-54
2024/03/10 10:28:13;;;;;;;9.13;4.70;;;;;;;12.12;43.18;97825.94;10423156;28;20143;-55
2024/03/10 10:33:15;;;;;;;9.23;4.53;;;;;;;11.90;44.58;97822.00;10424856;28;20124;-54
2024/03/10 10:38:20;;;;;;;8.68;4.60;;;;;;;12.04;43.97;97825.88;10427140;28;20045;-54
2024/03/10 10:43:22;;;;;;;10.02;5.20;;;;;;;12.13;44.20;97827.56;10423445;28;20791;-53
2024/03/10 10:48:25;;;;;;;8.07;4.85;;;;;;;11.92;43.98;97822.69;10424838;28;20755;-54
2024/03/10 10:53:31;;;;;;;9.35;4.85;;;;;;;12.10;44.34;97825.25;10423011;28;20134;-56
2024/03/10 10:58:36;;;;;;;8.85;4.90;;;;;;;12.28;43.64;97826.09;10423177;28;20041;-53
2024/03/10 11:03:40;;;;;;;9.32;5.15;;;;;;;12.02;43.94;97820.78;10425305;28;20132;-56
2024/03/10 11:08:46;;;;;;;9.95;5.05;;;;;;;12.18;44.08;97825.31;10424254;28;21590;-55
2024/03/10 11:13:52;;;;;;;10.43;5.38;;;;;;;12.25;43.68;97820.31;10424406;28;20453;-54
2024/03/10 11:19:16;;;;;;;9.82;5.57;;;;;;;12.53;42.61;97809.56;10423630;28;20050;-53
2024/03/10 11:24:25;;;;;;;9.90;4.77;;;;;;;12.72;42.58;97809.31;10429370;28;20456;-52
2024/03/10 11:29:28;;;;;;;9.63;4.80;;;;;;;12.78;42.90;97798.19;10433989;28;20496;-51
2024/03/10 11:34:30;;;;;;;7.90;4.78;;;;;;;12.68;42.84;97779.13;10432204;28;20064;-54
2024/03/10 11:39:33;;;;;;;9.15;4.72;;;;;;;12.63;42.97;97759.59;10433700;28;20452;-53
2024/03/10 11:44:36;;;;;;;9.13;4.53;;;;;;;12.91;42.28;97768.91;10432305;28;20091;-55
2024/03/10 11:49:39;;;;;;;9.65;4.82;;;;;;;12.93;42.64;97775.63;10433811;28;20306;-55
2024/03/10 11:54:41;;;;;;;8.82;5.32;;;;;;;12.85;42.88;97751.16;10433977;28;20037;-54
2024/03/10 11:59:44;;;;;;;8.40;4.88;;;;;;;12.70;42.50;97745.69;10433038;28;20085;-52
2024/03/10 12:04:46;;;;;;;9.02;4.70;;;;;;;12.78;42.67;97744.94;10464998;28;20127;-53
2024/03/10 12:09:53;;;;;;;8.73;4.90;;;;;;;12.81;42.40;97755.09;10431847;28;20068;-53
2024/03/10 12:14:56;;;;;;;10.65;4.97;;;;;;;13.06;42.62;97742.88;10431499;28;20933;-54
2024/03/10 12:20:00;;;;;;;9.50;4.93;;;;;;;13.25;42.25;97753.09;10432289;28;20065;-51
2024/03/10 12:25:09;;;;;;;9.82;5.05;;;;;;;13.24;41.76;97754.91;10431964;28;20282;-55
2024/03/10 12:30:12;;;;;;;8.95;5.15;;;;;;;13.46;41.36;97764.00;10430464;28;20512;-55
2024/03/10 12:35:14;;;;;;;10.52;5.18;;;;;;;13.20;41.26;97771.97;10430438;28;20586;-57
2024/03/10 12:40:16;;;;;;;7.43;4.50;;;;;;;13.02;41.71;97734.50;10431240;28;20372;-56
2024/03/10 12:45:19;;;;;;;9.25;4.25;;;;;;;13.61;41.94;97731.69;10427224;28;20053;-56
2024/03/10 12:50:21;;;;;;;8.10;4.35;;;;;;;14.12;41.48;97732.31;10461074;28;20776;-57
2024/03/10 12:55:23;;;;;;;9.95;5.75;;;;;;;13.44;41.33;97747.56;10431142;28;20044;-56
2024/03/10 13:00:27;;;;;;;9.60;4.95;;;;;;;13.61;41.08;97754.50;10428088;28;20536;-53
2024/03/10 13:05:31;;;;;;;12.25;5.75;;;;;;;13.46;41.33;97750.84;10429174;28;20345;-55
2024/03/10 13:10:34;;;;;;;9.48;4.80;;;;;;;13.35;41.58;97741.44;10427343;28;20052;-55
2024/03/10 13:15:37;;;;;;;8.50;4.97;;;;;;;13.42;41.47;97734.63;10429889;28;20302;-54
2024/03/10 13:20:40;;;;;;;9.18;4.68;;;;;;;13.39;41.65;97736.72;10429171;28;20325;-53
2024/03/10 13:25:43;;;;;;;8.95;5.03;;;;;;;13.28;42.00;97740.47;10427134;28;20052;-55
2024/03/10 13:30:45;;;;;;;11.27;4.70;;;;;;;13.29;42.05;97754.44;10426690;28;20281;-55
2024/03/10 13:35:47;;;;;;;11.00;5.15;;;;;;;13.14;41.93;97745.53;10425600;28;20072;-55
2024/03/10 13:40:52;;;;;;;9.43;4.95;;;;;;;12.92;41.99;97733.84;10412899;28;20144;-55
2024/03/10 13:45:54;;;;;;;9.38;4.60;;;;;;;12.80;42.32;97741.16;10406515;28;20041;-55
2024/03/10 13:50:56;;;;;;;10.82;5.00;;;;;;;12.94;42.04;97732.66;10420429;28;20076;-52
2024/03/10 13:55:58;;;;;;;10.27;4.85;;;;;;;13.01;42.26;97732.03;10423990;28;20044;-56
2024/03/10 14:01:05;;;;;;;10.27;4.63;;;;;;;13.01;41.66;97735.47;10419181;28;20073;-56
2024/03/10 14:06:13;;;;;;;8.25;4.38;;;;;;;13.22;42.46;97763.91;10429584;28;20131;-56
2024/03/10 14:11:16;;;;;;;13.18;5.88;;;;;;;13.26;42.14;97733.72;10426252;28;20057;-55
2024/03/10 14:16:24;;;;;;;9.45;4.93;;;;;;;13.04;42.12;97708.94;10428430;28;20057;-57
2024/03/10 14:21:26;;;;;;;9.60;4.80;;;;;;;13.23;42.42;97726.19;10427311;28;20078;-55
2024/03/10 14:26:31;;;;;;;9.32;5.55;;;;;;;13.20;42.08;97722.09;10427528;28;20077;-56
2024/03/10 14:31:34;;;;;;;10.95;5.22;;;;;;;12.74;42.43;97722.63;10424979;28;20566;-54
2024/03/10 14:36:42;;;;;;;10.27;5.10;;;;;;;13.29;42.23;97713.22;10442040;28;20041;-55
2024/03/10 14:41:47;;;;;;;10.35;5.47;;;;;;;13.44;41.90;97727.41;10423754;28;20057;-56
2024/03/10 14:46:59;;;;;;;11.27;5.38;;;;;;;13.12;42.33;97724.69;10424995;28;20049;-55
2024/03/10 14:52:05;;;;;;;10.40;5.55;;;;;;;13.19;42.37;97733.56;10424539;28;20044;-56
2024/03/10 14:57:07;;;;;;;11.57;5.65;;;;;;;13.40;42.35;97735.72;10426051;28;20140;-56
2024/03/10 15:02:09;;;;;;;11.30;5.95;;;;;;;13.53;41.84;97741.38;10434465;28;20312;-52
2024/03/10 15:07:15;;;;;;;10.05;4.93;;;;;;;13.30;42.27;97735.06;10433095;28;20045;-52
2024/03/10 15:12:17;;;;;;;8.73;5.03;;;;;;;13.20;42.52;97742.25;10434524;28;20555;-55
2024/03/10 15:17:28;;;;;;;;;;;;;;;13.07;42.68;97755.84;10434979;28;20041;-53
2024/03/10 15:22:36;;;;;;;10.30;4.88;;;;;;;13.08;42.78;97756.66;10430282;28;20285;-54
2024/03/10 15:27:39;;;;;;;11.20;5.63;;;;;;;12.92;42.87;97766.09;10431105;28;20410;-53
2024/03/10 15:32:42;;;;;;;10.70;6.38;;;;;;;13.05;43.38;97770.91;10431612;28;20147;-54
2024/03/10 15:37:45;;;;;;;9.90;5.72;;;;;;;13.12;43.31;97776.34;10414172;28;20033;-55
2024/03/10 15:42:48;;;;;;;12.43;5.97;;;;;;;12.98;43.47;97771.72;10430894;28;20504;-51
2024/03/10 15:47:56;;;;;;;12.15;6.47;;;;;;;12.94;43.62;97777.28;10431900;28;20040;-52
2024/03/10 15:53:01;;;;;;;14.45;6.25;;;;;;;13.03;43.43;97791.25;10431239;28;20124;-55
2024/03/10 15:58:03;;;;;;;10.27;5.55;;;;;;;13.05;43.49;97778.00;10437460;28;20041;-53
2024/03/10 16:03:16;;;;;;;12.00;6.07;;;;;;;12.98;43.26;97794.34;10437439;28;20526;-55
2024/03/10 16:08:21;;;;;;;13.10;6.30;;;;;;;12.92;43.78;97794.16;10435106;28;20051;-53
2024/03/10 16:13:26;;;;;;;9.30;5.40;;;;;;;12.81;43.98;97792.66;10418694;28;20084;-54
2024/03/10 16:18:32;;;;;;;13.88;5.80;;;;;;;12.78;44.33;97790.31;10433442;28;20118;-57
2024/03/10 16:23:34;;;;;;;11.25;5.55;;;;;;;12.73;44.12;97799.66;10436160;28;20056;-55
2024/03/10 16:28:37;;;;;;;12.27;6.43;;;;;;;12.65;44.23;97815.34;10435181;28;20148;-56
2024/03/10 16:33:41;;;;;;;11.80;6.10;;;;;;;12.62;44.26;97823.53;10434480;28;20049;-56
2024/03/10 16:38:43;;;;;;;15.63;6.38;;;;;;;12.54;44.66;97832.16;10433605;28;20098;-56
2024/03/10 16:43:45;;;;;;;11.48;5.72;;;;;;;12.25;44.59;97836.84;10435195;28;20139;-57
2024/03/10 16:48:51;;;;;;;11.73;6.40;;;;;;;12.15;44.54;97834.31;10433288;28;20638;-55
2024/03/10 16:53:53;;;;;;;11.75;5.60;;;;;;;12.17;45.18;97841.22;10413870;28;20454;-55
2024/03/10 16:58:56;;;;;;;10.23;6.13;;;;;;;12.06;45.43;97844.88;10415139;28;20044;-53
2024/03/10 17:03:59;;;;;;;11.10;5.55;;;;;;;11.98;45.41;97844.81;10425551;28;20505;-55
2024/03/10 17:09:04;;;;;;;13.63;5.95;;;;;;;11.89;45.62;97838.69;10430143;28;20286;-51
2024/03/10 17:14:08;;;;;;;13.75;5.75;;;;;;;11.83;45.66;97830.59;10431487;28;20130;-55
2024/03/10 17:19:10;;;;;;;10.60;6.45;;;;;;;11.83;45.62;97830.59;10427960;28;20144;-54
2024/03/10 17:24:12;;;;;;;44.22;20.52;;;;;;;11.63;45.88;97829.94;10430520;28;20456;-54
2024/03/10 17:29:15;;;;;;;15.00;7.03;;;;;;;11.64;46.06;97849.09;10425096;28;20402;-50
2024/03/10 17:34:17;;;;;;;11.00;5.93;;;;;;;11.48;46.15;97843.69;10432205;28;20135;-57
2024/03/10 17:39:20;;;;;;;12.32;5.63;;;;;;;11.36;46.43;97845.66;10427870;28;20061;-52
2024/03/10 17:44:24;;;;;;;11.80;6.30;;;;;;;11.35;46.46;97835.34;10432188;28;20144;-55
2024/03/10 17:49:26;;;;;;;12.13;6.90;;;;;;;11.32;46.53;97839.91;10423560;28;20568;-52
2024/03/10 17:54:28;;;;;;;11.07;6.18;;;;;;;11.30;46.54;97848.88;10429030;28;20045;-53
2024/03/10 17:59:32;;;;;;;13.18;6.13;;;;;;;11.36;46.70;97844.88;10425325;28;20575;-60
2024/03/10 18:04:35;;;;;;;13.98;6.63;;;;;;;11.23;46.72;97853.84;10422973;28;20075;-59
2024/03/10 18:09:37;;;;;;;12.50;6.55;;;;;;;11.19;47.02;97865.59;10427559;28;20037;-60
2024/03/10 18:14:41;;;;;;;10.88;6.80;;;;;;;11.12;47.08;97864.53;10422082;28;20115;-60
2024/03/10 18:19:43;;;;;;;13.43;7.38;;;;;;;10.93;47.48;97877.66;10430262;28;20049;-60
2024/03/10 18:24:45;;;;;;;14.65;7.15;;;;;;;10.81;47.96;97876.19;10429364;28;20090;-60
2024/03/10 18:29:48;;;;;;;14.88;7.15;;;;;;;10.69;47.95;97884.34;10427404;28;20127;-60
2024/03/10 18:34:51;;;;;;;14.73;7.95;;;;;;;10.75;47.90;97896.84;10391998;28;20045;-60
2024/03/10 18:39:53;;;;;;;11.23;5.93;;;;;;;10.81;47.98;97896.25;10421262;28;20077;-60
2024/03/10 18:44:56;;;;;;;14.60;7.65;;;;;;;10.80;48.23;97897.25;10419662;28;20041;-59
2024/03/10 18:49:58;;;;;;;14.00;7.38;;;;;;;10.93;48.31;97895.97;10421957;28;20284;-59
2024/03/10 18:55:01;;;;;;;14.93;7.57;;;;;;;10.86;48.51;97904.53;10423984;28;20128;-60
2024/03/10 19:00:05;;;;;;;20.15;8.00;;;;;;;10.81;48.71;97893.66;10426126;28;20057;-60
2024/03/10 19:05:09;;;;;;;15.48;7.85;;;;;;;10.66;48.83;97887.25;10454031;28;20133;-60
2024/03/10 19:10:13;;;;;;;15.77;7.90;;;;;;;10.74;48.97;97895.19;10425914;28;20220;-60
2024/03/10 19:15:15;;;;;;;13.85;7.10;;;;;;;10.81;49.01;97906.72;10422842;28;20136;-59
2024/03/10 19:20:25;;;;;;;16.17;8.25;;;;;;;10.80;48.98;97912.94;10424150;28;20056;-59
2024/03/10 19:25:33;;;;;;;12.60;6.65;;;;;;;10.74;49.40;97926.56;10429858;28;20055;-60
2024/03/10 19:30:36;;;;;;;15.00;8.55;;;;;;;10.71;49.45;97919.84;10424309;28;20056;-60
2024/03/10 19:35:38;;;;;;;12.20;6.97;;;;;;;10.70;49.42;97930.44;10425937;28;20053;-60
2024/03/10 19:40:41;;;;;;;13.85;6.80;;;;;;;10.57;49.54;97933.34;10422327;28;20053;-60
2024/03/10 19:45:45;;;;;;;15.43;7.50;;;;;;;10.60;49.47;97947.94;10432382;28;20806;-60
2024/03/10 19:50:48;;;;;;;15.25;7.70;;;;;;;10.65;49.53;97951.75;10430398;28;20049;-60
2024/03/10 19:55:53;;;;;;;14.38;6.90;;;;;;;10.60;49.67;97961.84;10427818;28;20400;-60
2024/03/10 20:00:55;;;;;;;17.73;8.23;;;;;;;10.31;50.03;97951.41;10433393;28;20045;-59
2024/03/10 20:05:57;;;;;;;15.65;7.82;;;;;;;10.21;50.31;97947.13;10431571;28;20124;-60
2024/03/10 20:11:00;;;;;;;14.60;8.07;;;;;;;10.05;50.52;97958.13;10430859;28;20052;-60
2024/03/10 20:16:02;;;;;;;16.58;7.60;;;;;;;10.10;50.80;97961.13;10432679;28;20045;-60
2024/03/10 20:21:04;;;;;;;14.43;7.60;;;;;;;10.02;50.78;97954.94;10413967;28;20052;-60
2024/03/10 20:26:07;;;;;;;14.57;7.82;;;;;;;9.94;50.77;97960.00;10408110;28;20052;-59
2024/03/10 20:31:10;;;;;;;14.52;8.32;;;;;;;9.94;50.89;97960.84;10429636;28;20171;-60
2024/03/10 20:36:12;;;;;;;14.32;7.80;;;;;;;10.10;51.01;97971.59;10430984;28;20692;-60
2024/03/10 20:41:15;;;;;;;17.20;7.90;;;;;;;10.16;50.97;97971.03;10428734;28;20044;-59
2024/03/10 20:46:18;;;;;;;11.98;6.95;;;;;;;10.00;51.28;97975.13;10425136;28;20041;-59
2024/03/10 20:51:40;;;;;;;14.02;7.93;;;;;;;9.95;51.22;97977.34;10428261;28;20041;-59
2024/03/10 20:56:42;;;;;;;14.90;8.05;;;;;;;9.93;51.26;97977.47;10422391;28;20291;-59
2024/03/10 21:01:44;;;;;;;15.32;7.13;;;;;;;9.98;51.20;97982.28;10420282;28;20037;-60
2024/03/10 21:06:47;;;;;;;15.55;8.43;;;;;;;10.06;51.13;97982.44;10429457;28;20039;-60
2024/03/10 21:11:50;;;;;;;15.18;7.57;;;;;;;10.16;51.23;97991.09;10445647;28;20275;-59
2024/03/10 21:16:53;;;;;;;14.43;7.55;;;;;;;10.22;50.92;97990.56;10430978;28;20045;-60
2024/03/10 21:21:59;;;;;;;17.17;8.27;;;;;;;10.26;51.11;97990.16;10427815;28;20049;-60
2024/03/10 21:27:01;;;;;;;16.60;7.90;;;;;;;10.26;51.01;97984.94;10426963;28;20056;-59
2024/03/10 21:32:06;;;;;;;15.23;8.05;;;;;;;10.12;51.34;97990.56;10463106;28;20065;-60
2024/03/10 21:37:11;;;;;;;17.98;9.23;;;;;;;10.21;51.58;97994.16;10424278;28;20501;-60
2024/03/10 21:42:13;;;;;;;14.10;8.20;;;;;;;10.19;51.82;97980.41;10461421;28;20182;-60
2024/03/10 21:47:16;;;;;;;14.77;8.35;;;;;;;10.18;52.49;97983.94;10427444;28;20045;-60
2024/03/10 21:52:18;;;;;;;15.00;7.88;;;;;;;10.01;53.08;97985.44;10426031;28;20053;-60
2024/03/10 21:57:21;;;;;;;15.45;8.02;;;;;;;9.94;54.13;97993.97;10426162;28;20504;-60
2024/03/10 22:02:24;;;;;;;15.73;8.32;;;;;;;9.91;54.84;97991.63;10442300;28;20068;-60
2024/03/10 22:07:26;;;;;;;19.38;8.93;;;;;;;9.82;55.45;97988.03;10428394;28;20060;-60
2024/03/10 22:12:29;;;;;;;19.40;9.82;;;;;;;9.77;55.89;97989.41;10425451;28;20496;-60
2024/03/10 22:17:33;;;;;;;21.70;9.15;;;;;;;9.70;56.36;97993.50;10428904;28;20055;-60
2024/03/10 22:22:36;;;;;;;14.05;8.50;;;;;;;9.57;56.64;98004.97;10426477;28;20056;-59
2024/03/10 22:27:40;;;;;;;17.80;8.85;;;;;;;9.52;57.23;98011.53;10429840;28;20137;-60
2024/03/10 22:32:43;;;;;;;16.40;8.60;;;;;;;9.49;57.49;98014.41;10428287;28;20056;-60
2024/03/10 22:37:48;;;;;;;17.02;9.20;;;;;;;9.50;57.60;98019.47;10427511;28;20045;-60
2024/03/10 22:42:53;;;;;;;18.30;9.30;;;;;;;9.45;57.97;98036.50;10427595;28;20061;-60
2024/03/10 22:47:57;;;;;;;16.10;9.23;;;;;;;9.32;58.25;98028.06;10436640;28;20051;-60
2024/03/10 22:53:02;;;;;;;15.32;8.18;;;;;;;9.09;58.73;98027.38;10426341;28;20596;-59
2024/03/10 22:58:05;;;;;;;19.20;8.55;;;;;;;9.03;58.84;98030.50;10424466;28;20510;-59
2024/03/10 23:03:14;;;;;;;18.08;9.45;;;;;;;9.13;59.30;98035.78;10424735;28;20086;-60
2024/03/10 23:08:20;;;;;;;17.33;9.93;;;;;;;9.01;59.71;98042.84;10425423;28;20077;-59
2024/03/10 23:13:23;;;;;;;18.48;9.00;;;;;;;8.96;59.92;98039.78;10424678;28;20061;-60
2024/03/10 23:18:26;;;;;;;14.25;7.65;;;;;;;8.77;59.85;98042.28;10426720;28;20382;-60
2024/03/10 23:23:30;;;;;;;17.73;9.13;;;;;;;8.82;60.58;98047.91;10431323;28;20409;-60
2024/03/10 23:28:32;;;;;;;17.30;8.73;;;;;;;8.89;60.44;98049.06;10431341;28;20489;-60
2024/03/10 23:33:35;;;;;;;18.77;9.10;;;;;;;8.87;60.35;98051.00;10435957;28;20041;-60
2024/03/10 23:38:38;;;;;;;16.23;8.85;;;;;;;8.75;60.62;98052.00;10430208;28;20531;-60
2024/03/10 23:43:40;;;;;;;18.52;9.07;;;;;;;8.85;60.96;98055.50;10433508;28;20143;-60
2024/03/10 23:48:43;;;;;;;17.25;9.68;;;;;;;8.88;60.89;98042.19;10433824;28;20498;-60